WEATHER DATA

YESTERDAY
Time Temp. Dewp. Hum. Bar.
00:08 16.9 10.7 67 1031.8
00:18 16.9 10.7 67 1031.8
00:28 16.9 10.7 67 1031.8
00:38 16.9 10.7 67 1031.8
00:48 16.8 10.6 67 1031.8
00:58 16.8 10.6 67 1031.7
01:08 16.8 10.6 67 1031.6
01:19 16.8 10.9 68 1031.6
01:59 16.7 10.8 68 1031.2
02:34 16.7 11 69 1031.2
02:44 16.6 11.1 70 1031.2
02:54 16.6 11.1 70 1031.2
03:05 16.6 11.1 70 1031.1
03:14 16.6 11.1 70 1031
03:24 16.6 11.1 70 1030.9
03:34 16.6 11.1 70 1030.9
03:45 16.6 11.1 70 1030.8
03:55 16.5 11 70 1030.8
04:15 16.5 11 70 1030.6
04:25 16.5 11 70 1030.5
07:36 16.3 11 71 1030.1
07:57 16.2 10.9 71 1030.2
08:07 16.3 11.7 74 1030.3
08:17 16.5 11.2 71 1030.3
08:28 16.5 11.9 74 1030.4
08:37 16.8 12.1 74 1030.4
08:47 17.1 11.8 71 1030.5
08:58 16.9 11.4 70 1030.5
09:08 16.8 11.5 71 1030.6
09:22 16.6 11.3 71 1030.6
09:33 16.6 11.5 72 1030.7
09:43 16.6 11.7 73 1030.7
09:53 16.8 12.3 75 1030.7
10:03 17.1 12.4 74 1030.8
10:14 17.1 12.2 73 1031
10:23 17 12.1 73 1031.1
10:44 17 12.5 75 1031.3
10:54 17 12.5 75 1031.2
11:04 17 12.5 75 1031.2
11:14 17 12.5 75 1031.1
11:24 17 12.7 76 1031
11:39 17.2 13.1 77 1030.7
11:49 17.4 13.5 78 1030.7
11:55 17.6 14.3 81 1030.6
12:05 17.8 14.5 81 1030.5
12:15 17.9 13.8 77 1030.3
12:25 17.9 13.6 76 1030.2
12:36 17.8 13.3 75 1030
12:46 17.8 13.3 75 1029.8
12:56 17.8 13.3 75 1029.6
13:05 17.8 13.1 74 1029.3
13:16 17.8 12.9 73 1029
13:36 17.9 12.8 72 1028.7
13:51 17.9 12.8 72 1028.2
14:01 18 12.7 71 1028.1
14:11 18 12.7 71 1027.8
14:27 18 12.9 72 1027.6
14:37 18 12.9 72 1027.6
14:46 18.1 13 72 1027.4
14:57 18.1 13.2 73 1027.3
15:07 18.3 14 76 1027.3
15:17 18.5 14.2 76 1027.2
15:27 18.5 13.8 74 1027.3
15:37 18.5 13.4 72 1027.2
15:47 18.4 13.3 72 1027.3
15:57 18.4 13.5 73 1027.2
16:08 18.3 13.2 72 1027.1
16:18 18.3 13.4 73 1027.2
16:28 18.3 14 76 1027.3
16:37 18.5 14.2 76 1027.3
16:48 18.5 14 75 1027.3
16:58 18.4 13.9 75 1027.2
17:08 18.4 13.9 75 1027.2
17:18 18.3 13.8 75 1027.3
17:28 18.3 14 76 1027.2
17:38 18.2 13.9 76 1027.2
17:48 18.2 14.1 77 1027.2
17:59 18.2 14.1 77 1027.2
18:09 18.1 14 77 1027.2
18:24 18.1 14.2 78 1027.1
18:34 18.1 14.2 78 1027.2
18:44 18.1 14.2 78 1027.1
18:54 18.1 14.2 78 1027.2
19:04 18 14.1 78 1027.2
19:15 18 14.1 78 1027.2
19:24 18 14.1 78 1027.2
19:34 18 14.1 78 1027.1
19:44 18 14.1 78 1027.1
19:55 18 14.1 78 1027.1
20:10 17.9 14 78 1027.1
20:20 17.9 14 78 1027.1
23:11 17.5 13.2 76 1026.5
23:22 17.5 13.2 76 1026.5
23:32 17.5 13.2 76 1026.6
23:57 17.5 13.2 76 1026.5

DAY STATISTIC

2019-12-13
TEMPERATURE
AVERAGE
17.5
HIGH
18.5
15:17
LOW
16.2
07:57
PRESSURE
AVERAGE
1029.2
HIGH
1031.8
00:08
LOW
1026.5
23:11
DEWPOINT
AVERAGE
12.7
HIGH
14.5
12:05
LOW
10.6
00:48
HUMIDITY
AVERAGE
74
HIGH
81
11:55
LOW
67
00:08
TEMPERATURE (°C)
LOW
16.2
HIGH
18.5
AVERAGE
17.5
PRESSURE (hpa)
LOW
1026.5
HIGH
1031.8
AVERAGE
1029.2
DEVICE